createdAt,value
2019-01-31T00:02:23.614Z,82.45
2019-01-31T00:05:00.793Z,82.38
2019-01-31T00:07:41.299Z,82.32
2019-01-31T00:10:21.926Z,82.46
2019-01-31T00:13:14.364Z,82.51
2019-01-31T00:16:09.866Z,82.64
2019-01-31T00:18:41.536Z,82.64
2019-01-31T00:21:18.176Z,82.74
2019-01-31T00:23:55.402Z,82.79
2019-01-31T00:26:38.941Z,82.68
2019-01-31T00:29:19.532Z,82.68
2019-01-31T00:32:06.178Z,82.69
2019-01-31T00:34:40.354Z,82.76
2019-01-31T00:37:14.877Z,82.55
2019-01-31T00:39:58.148Z,82.60
2019-01-31T00:42:29.701Z,82.39
2019-01-31T00:45:19.171Z,82.50
2019-01-31T00:47:56.546Z,82.55
2019-01-31T00:50:45.753Z,82.33
2019-01-31T00:53:17.390Z,82.47
2019-01-31T00:55:48.939Z,82.50
2019-01-31T00:58:32.321Z,82.55
2019-01-31T01:01:09.583Z,82.55
2019-01-31T01:03:43.796Z,82.63
2019-01-31T01:06:30.105Z,82.60
2019-01-31T01:09:19.694Z,82.76
2019-01-31T01:11:54.155Z,82.88
2019-01-31T01:14:34.513Z,82.90
2019-01-31T01:17:06.056Z,82.92
2019-01-31T01:19:40.079Z,82.90
2019-01-31T01:22:19.828Z,82.93
2019-01-31T01:25:07.665Z,83.05
2019-01-31T01:27:39.200Z,82.89
2019-01-31T01:30:19.809Z,83.01
2019-01-31T01:33:03.254Z,82.79
2019-01-31T01:35:59.179Z,82.92
2019-01-31T01:38:49.105Z,82.86
2019-01-31T01:41:29.438Z,83.00
2019-01-31T01:44:22.539Z,82.73
2019-01-31T01:47:11.996Z,82.79
2019-01-31T01:49:43.559Z,82.83
2019-01-31T01:52:15.072Z,82.90
2019-01-31T01:54:49.422Z,82.87
2019-01-31T01:57:29.879Z,82.88
2019-01-31T02:00:22.808Z,82.94
2019-01-31T02:03:02.657Z,82.76
2019-01-31T02:05:37.386Z,82.73
2019-01-31T02:08:11.548Z,82.96
2019-01-31T02:10:43.080Z,82.98
2019-01-31T02:13:14.597Z,82.99
2019-01-31T02:16:07.049Z,82.95
2019-01-31T02:18:47.272Z,82.91
2019-01-31T02:21:33.803Z,82.81
2019-01-31T02:24:11.405Z,82.82
2019-01-31T02:27:00.845Z,82.94
2019-01-31T02:29:44.327Z,82.90
2019-01-31T02:32:24.757Z,82.89
2019-01-31T02:35:18.993Z,82.78
2019-01-31T02:37:59.335Z,82.74
2019-01-31T02:40:39.710Z,82.72
2019-01-31T02:43:11.247Z,82.78
2019-01-31T02:46:11.284Z,82.86
2019-01-31T02:48:48.573Z,82.95
2019-01-31T02:51:38.352Z,82.76
2019-01-31T02:54:12.709Z,83.00
2019-01-31T02:56:53.033Z,83.08
2019-01-31T02:59:41.044Z,82.84
2019-01-31T03:02:30.788Z,83.06
2019-01-31T03:05:02.326Z,83.00
2019-01-31T03:07:58.606Z,83.10
2019-01-31T03:10:32.601Z,83.03
2019-01-31T03:13:07.070Z,82.95
2019-01-31T03:15:47.165Z,82.98
2019-01-31T03:18:21.403Z,83.01
2019-01-31T03:21:11.028Z,83.01
2019-01-31T03:24:03.416Z,83.04
2019-01-31T03:26:37.427Z,83.15
2019-01-31T03:29:34.740Z,83.16
2019-01-31T03:32:09.159Z,83.12
2019-01-31T03:35:18.136Z,82.95
2019-01-31T03:38:05.849Z,83.08
2019-01-31T03:40:45.952Z,83.27
2019-01-31T03:43:17.483Z,83.38
2019-01-31T03:46:04.030Z,83.15
2019-01-31T03:48:41.505Z,83.02
2019-01-31T03:51:13.023Z,83.06
2019-01-31T03:54:01.014Z,83.17
2019-01-31T03:56:38.280Z,83.27
2019-01-31T03:59:18.641Z,83.28
2019-01-31T04:02:02.224Z,83.29
2019-01-31T04:04:36.722Z,83.17
2019-01-31T04:07:05.263Z,83.20
2019-01-31T04:09:33.749Z,83.13
2019-01-31T04:12:02.223Z,83.12
2019-01-31T04:14:30.713Z,83.00
2019-01-31T04:16:59.229Z,83.08
2019-01-31T04:19:27.672Z,83.01
2019-01-31T04:21:56.148Z,83.21
2019-01-31T04:24:24.634Z,83.21
2019-01-31T04:26:53.372Z,83.11
2019-01-31T04:29:21.872Z,83.09
2019-01-31T04:31:50.324Z,83.23
2019-01-31T04:34:18.891Z,83.28
2019-01-31T04:36:47.348Z,83.31
2019-01-31T04:39:15.833Z,83.05
2019-01-31T04:41:44.305Z,83.11
2019-01-31T04:44:12.796Z,83.25
2019-01-31T04:46:41.264Z,83.18
2019-01-31T04:49:09.762Z,83.28
2019-01-31T04:51:38.238Z,83.19
2019-01-31T04:54:06.789Z,82.93
2019-01-31T04:56:35.270Z,82.94
2019-01-31T04:59:03.775Z,82.84
2019-01-31T05:01:32.238Z,82.89
2019-01-31T05:04:00.740Z,83.16
2019-01-31T05:06:29.214Z,82.95
2019-01-31T05:08:57.707Z,82.81
2019-01-31T05:11:26.185Z,82.86
2019-01-31T05:13:54.681Z,82.87
2019-01-31T05:16:23.156Z,82.83
2019-01-31T05:18:51.641Z,82.87
2019-01-31T05:21:21.006Z,83.02
2019-01-31T05:23:49.567Z,83.00
2019-01-31T05:26:18.026Z,82.98
2019-01-31T05:28:46.529Z,82.92
2019-01-31T05:31:14.986Z,83.08
2019-01-31T05:33:43.510Z,83.13
2019-01-31T05:36:11.946Z,83.20
2019-01-31T05:38:40.434Z,83.29
2019-01-31T05:41:08.904Z,83.29
2019-01-31T05:43:37.382Z,83.33
2019-01-31T05:46:05.901Z,83.36
2019-01-31T05:48:34.350Z,83.35
2019-01-31T05:51:02.842Z,83.24
2019-01-31T05:53:31.305Z,83.32
2019-01-31T05:55:59.803Z,83.40
2019-01-31T05:58:28.278Z,83.21
2019-01-31T06:00:56.762Z,83.52
2019-01-31T06:03:25.241Z,83.47
2019-01-31T06:05:53.720Z,83.73
2019-01-31T06:08:22.197Z,83.70
2019-01-31T06:10:50.690Z,83.70
2019-01-31T06:13:19.157Z,83.83
2019-01-31T06:15:47.639Z,84.03
2019-01-31T06:18:16.119Z,83.98
2019-01-31T06:20:44.652Z,83.93
2019-01-31T06:23:13.115Z,83.87
2019-01-31T06:25:41.611Z,83.96
2019-01-31T06:28:12.913Z,84.02
2019-01-31T06:30:40.294Z,83.82
2019-01-31T06:33:08.762Z,83.83
2019-01-31T06:35:37.254Z,83.96
2019-01-31T06:38:05.723Z,83.83
2019-01-31T06:40:34.215Z,84.02
2019-01-31T06:43:02.686Z,84.10
2019-01-31T06:45:31.175Z,83.99
2019-01-31T06:47:59.659Z,83.94
2019-01-31T06:50:28.268Z,83.90
2019-01-31T06:52:58.233Z,83.76
2019-01-31T06:55:26.752Z,83.86
2019-01-31T06:57:55.217Z,83.73
2019-01-31T07:00:24.554Z,83.87
2019-01-31T07:02:53.100Z,84.01
2019-01-31T07:05:21.593Z,83.90
2019-01-31T07:07:50.073Z,84.03
2019-01-31T07:10:26.261Z,83.88
2019-01-31T07:12:54.791Z,83.91
2019-01-31T07:15:23.426Z,83.82
2019-01-31T07:17:51.878Z,83.76
2019-01-31T07:20:20.558Z,83.92
2019-01-31T07:22:49.033Z,83.88
2019-01-31T07:25:22.590Z,83.90
2019-01-31T07:27:51.057Z,83.64
2019-01-31T07:30:26.315Z,83.77
2019-01-31T07:32:53.655Z,83.75
2019-01-31T07:35:22.135Z,83.86
2019-01-31T07:37:52.971Z,83.77
2019-01-31T07:40:22.847Z,83.79
2019-01-31T07:42:51.390Z,84.16
2019-01-31T07:45:22.787Z,83.92
2019-01-31T07:47:51.662Z,83.79
2019-01-31T07:50:20.535Z,83.81
2019-01-31T07:52:49.082Z,83.85
2019-01-31T07:55:17.805Z,83.93
2019-01-31T07:57:46.286Z,83.88
2019-01-31T08:00:20.072Z,83.83
2019-01-31T08:02:48.573Z,83.86
2019-01-31T08:05:18.899Z,83.76
2019-01-31T08:07:48.843Z,83.76
2019-01-31T08:10:23.315Z,83.96
2019-01-31T08:12:51.757Z,83.88
2019-01-31T08:15:20.499Z,83.85
2019-01-31T08:17:48.970Z,83.75
2019-01-31T08:20:19.396Z,83.65
2019-01-31T08:22:47.861Z,83.57
2019-01-31T08:25:24.713Z,83.49
2019-01-31T08:27:54.129Z,83.53
2019-01-31T08:30:34.375Z,83.39
2019-01-31T08:33:02.920Z,83.22
2019-01-31T08:35:31.415Z,83.18
2019-01-31T08:37:59.915Z,83.29
2019-01-31T08:40:28.405Z,82.94
2019-01-31T08:42:56.875Z,82.97
2019-01-31T08:45:25.446Z,82.97
2019-01-31T08:47:53.913Z,82.99
2019-01-31T08:50:28.418Z,82.87
2019-01-31T08:52:56.919Z,82.74
2019-01-31T08:55:25.426Z,82.74
2019-01-31T08:57:53.911Z,82.76
2019-01-31T09:00:25.458Z,82.77
2019-01-31T09:02:54.012Z,82.54
2019-01-31T09:05:22.494Z,82.71
2019-01-31T09:07:51.114Z,82.00
2019-01-31T09:10:28.904Z,82.07
2019-01-31T09:12:58.416Z,81.97
2019-01-31T09:15:27.217Z,81.81
2019-01-31T09:17:57.922Z,81.69
2019-01-31T09:20:39.709Z,81.81
2019-01-31T09:23:20.406Z,81.92
2019-01-31T09:26:14.794Z,81.56
2019-01-31T09:29:04.616Z,81.48
2019-01-31T09:31:48.276Z,81.38
2019-01-31T09:34:34.714Z,81.13
2019-01-31T09:37:18.241Z,80.95
2019-01-31T09:39:55.581Z,80.62
2019-01-31T09:42:32.889Z,81.15
2019-01-31T09:45:07.136Z,80.21
2019-01-31T09:47:47.561Z,80.85
2019-01-31T09:50:43.187Z,79.74
2019-01-31T09:53:27.654Z,79.66
2019-01-31T09:56:15.827Z,79.38
2019-01-31T09:59:09.745Z,79.09
2019-01-31T10:02:05.208Z,78.52
2019-01-31T10:04:42.585Z,79.10
2019-01-31T10:07:20.266Z,78.95
2019-01-31T10:10:09.417Z,78.86
2019-01-31T10:12:46.678Z,77.78
2019-01-31T10:15:27.240Z,78.37
2019-01-31T10:18:05.069Z,77.35
2019-01-31T10:20:53.256Z,76.57
2019-01-31T10:23:31.055Z,73.75
2019-01-31T10:26:17.616Z,74.51
2019-01-31T10:28:51.830Z,73.94
2019-01-31T10:31:32.088Z,76.18
2019-01-31T10:34:15.264Z,76.10
2019-01-31T10:36:54.211Z,74.53
2019-01-31T10:39:35.668Z,72.01
2019-01-31T10:42:10.026Z,71.09
2019-01-31T10:44:50.716Z,69.33
2019-01-31T10:47:37.171Z,71.61
2019-01-31T10:50:40.544Z,73.92
2019-01-31T10:53:29.918Z,72.53
2019-01-31T10:56:22.100Z,70.52
2019-01-31T10:59:17.840Z,70.21
2019-01-31T11:02:07.449Z,69.25
2019-01-31T11:05:07.135Z,71.84
2019-01-31T11:08:04.664Z,72.02
2019-01-31T11:10:51.274Z,69.70
2019-01-31T11:13:46.961Z,68.30
2019-01-31T11:16:21.373Z,72.17
2019-01-31T11:19:12.492Z,69.90
2019-01-31T11:21:59.306Z,71.76
2019-01-31T11:24:42.728Z,70.00
2019-01-31T11:27:25.988Z,69.62
2019-01-31T11:30:30.883Z,71.24
2019-01-31T11:33:20.503Z,70.14
2019-01-31T11:36:03.949Z,70.08
2019-01-31T11:39:10.346Z,69.17
2019-01-31T11:41:57.080Z,70.55
2019-01-31T11:44:52.850Z,67.38
2019-01-31T11:47:45.093Z,68.17
2019-01-31T11:50:16.644Z,68.67
2019-01-31T11:52:56.744Z,68.38
2019-01-31T11:55:34.067Z,67.83
2019-01-31T11:58:11.423Z,67.04
2019-01-31T12:00:40.051Z,68.12
2019-01-31T12:03:08.752Z,67.35
2019-01-31T12:05:37.628Z,66.85
2019-01-31T12:08:06.419Z,68.79
2019-01-31T12:10:36.635Z,68.64
2019-01-31T12:13:05.538Z,68.40
2019-01-31T12:15:34.358Z,68.62
2019-01-31T12:18:05.909Z,69.06
2019-01-31T12:20:34.513Z,69.36
2019-01-31T12:23:03.034Z,69.04
2019-01-31T12:25:31.482Z,68.06
2019-01-31T12:27:59.969Z,69.37
2019-01-31T12:30:29.680Z,68.44
2019-01-31T12:32:58.255Z,68.78
2019-01-31T12:35:26.713Z,67.14
2019-01-31T12:37:55.196Z,68.54
2019-01-31T12:40:23.756Z,68.00
2019-01-31T12:42:52.384Z,68.32
2019-01-31T12:45:21.412Z,67.28
2019-01-31T12:47:50.077Z,66.89
2019-01-31T12:50:21.293Z,66.34
2019-01-31T12:52:50.040Z,67.23
2019-01-31T12:55:18.512Z,68.33
2019-01-31T12:57:47.073Z,67.63
2019-01-31T13:00:21.226Z,67.46
2019-01-31T13:02:49.698Z,67.86
2019-01-31T13:05:18.394Z,66.80
2019-01-31T13:07:47.292Z,66.33
2019-01-31T13:10:16.478Z,67.37
2019-01-31T13:12:48.921Z,68.33
2019-01-31T13:15:17.248Z,67.27
2019-01-31T13:17:45.884Z,67.12
2019-01-31T13:20:22.519Z,66.03
2019-01-31T13:22:56.130Z,67.47
2019-01-31T13:25:25.921Z,67.00
2019-01-31T13:27:54.555Z,66.42
2019-01-31T13:30:23.998Z,67.48
2019-01-31T13:32:54.619Z,63.75
2019-01-31T13:35:23.093Z,63.19
2019-01-31T13:37:51.679Z,65.35
2019-01-31T13:40:22.940Z,64.40
2019-01-31T13:42:51.969Z,66.31
2019-01-31T13:45:23.575Z,66.73
2019-01-31T13:47:52.384Z,66.92
2019-01-31T13:50:21.001Z,67.66
2019-01-31T13:52:49.549Z,67.87
2019-01-31T13:55:23.964Z,68.73
2019-01-31T13:57:52.454Z,68.26
2019-01-31T14:00:23.170Z,68.35
2019-01-31T14:02:52.961Z,68.89
2019-01-31T14:05:21.693Z,68.54
2019-01-31T14:07:50.208Z,68.00
2019-01-31T14:10:25.960Z,68.24
2019-01-31T14:12:54.507Z,68.83
2019-01-31T14:15:34.355Z,68.17
2019-01-31T14:18:03.027Z,68.28
2019-01-31T14:20:31.722Z,68.53
2019-01-31T14:23:00.200Z,67.92
2019-01-31T14:25:28.677Z,67.83
2019-01-31T14:27:57.234Z,68.04
2019-01-31T14:30:31.015Z,67.67
2019-01-31T14:33:00.232Z,67.62
2019-01-31T14:35:29.444Z,68.19
2019-01-31T14:37:57.991Z,68.08
2019-01-31T14:40:27.626Z,68.62
2019-01-31T14:42:56.229Z,68.03
2019-01-31T14:45:24.818Z,68.03
2019-01-31T14:47:55.745Z,68.58
2019-01-31T14:50:29.051Z,67.33
2019-01-31T14:52:57.538Z,67.46
2019-01-31T14:55:26.370Z,67.71
2019-01-31T14:57:55.163Z,67.18
2019-01-31T15:00:31.910Z,67.17
2019-01-31T15:03:00.372Z,67.28
2019-01-31T15:05:29.513Z,67.56
2019-01-31T15:07:58.001Z,67.33
2019-01-31T15:10:30.330Z,68.27
2019-01-31T15:12:59.011Z,67.88
2019-01-31T15:15:27.590Z,67.36
2019-01-31T15:17:56.321Z,67.81
2019-01-31T15:20:35.953Z,67.54
2019-01-31T15:22:57.237Z,67.59
2019-01-31T15:25:25.992Z,68.15
2019-01-31T15:27:54.600Z,68.00
2019-01-31T15:30:29.444Z,68.83
2019-01-31T15:32:58.540Z,68.57
2019-01-31T15:35:27.030Z,68.99
2019-01-31T15:37:56.653Z,69.17
2019-01-31T15:40:36.894Z,69.22
2019-01-31T15:43:06.499Z,69.48
2019-01-31T15:45:35.090Z,69.70
2019-01-31T15:48:03.606Z,70.00
2019-01-31T15:50:33.126Z,70.13
2019-01-31T15:53:03.152Z,70.35
2019-01-31T15:55:31.725Z,70.57
2019-01-31T15:58:00.192Z,70.67
2019-01-31T16:00:41.822Z,70.85
2019-01-31T16:03:12.530Z,71.09
2019-01-31T16:05:41.681Z,71.13
2019-01-31T16:08:10.871Z,71.11
2019-01-31T16:10:39.533Z,71.29
2019-01-31T16:13:08.355Z,71.39
2019-01-31T16:15:37.193Z,71.46
2019-01-31T16:18:07.606Z,71.64
2019-01-31T16:20:36.158Z,71.69
2019-01-31T16:23:05.113Z,71.77
2019-01-31T16:25:33.666Z,71.77
2019-01-31T16:28:02.127Z,72.06
2019-01-31T16:30:30.631Z,72.23
2019-01-31T16:32:59.105Z,72.21
2019-01-31T16:35:27.660Z,72.25
2019-01-31T16:37:56.122Z,72.26
2019-01-31T16:40:24.670Z,72.56
2019-01-31T16:42:53.405Z,72.64
2019-01-31T16:45:22.165Z,72.91
2019-01-31T16:47:50.646Z,72.96
2019-01-31T16:50:21.144Z,73.29
2019-01-31T16:52:49.689Z,73.14
2019-01-31T16:55:24.282Z,73.37
2019-01-31T16:57:53.382Z,73.27
2019-01-31T17:00:27.837Z,73.48
2019-01-31T17:02:56.469Z,73.56
2019-01-31T17:05:27.326Z,73.66
2019-01-31T17:07:55.938Z,73.90
2019-01-31T17:10:24.503Z,73.99
2019-01-31T17:12:53.043Z,73.95
2019-01-31T17:15:21.743Z,74.11
2019-01-31T17:17:50.291Z,74.09
2019-01-31T17:20:24.253Z,73.97
2019-01-31T17:22:52.703Z,73.97
2019-01-31T17:25:21.322Z,73.97
2019-01-31T17:27:49.786Z,74.31
2019-01-31T17:30:23.270Z,74.58
2019-01-31T17:32:51.986Z,74.71
2019-01-31T17:35:20.539Z,74.94
2019-01-31T17:37:49.018Z,75.66
2019-01-31T17:40:35.453Z,75.35
2019-01-31T17:43:04.393Z,75.90
2019-01-31T17:45:32.875Z,76.31
2019-01-31T17:48:01.357Z,75.92
2019-01-31T17:50:29.838Z,76.36
2019-01-31T17:52:58.387Z,76.64
2019-01-31T17:55:28.087Z,76.66
2019-01-31T17:57:56.636Z,76.26
2019-01-31T18:00:41.279Z,77.32
2019-01-31T18:03:09.743Z,76.56
2019-01-31T18:05:38.236Z,77.02
2019-01-31T18:08:09.183Z,77.48
2019-01-31T18:10:37.229Z,77.37
2019-01-31T18:13:05.842Z,77.76
2019-01-31T18:15:41.563Z,77.53
2019-01-31T18:18:05.069Z,77.90
2019-01-31T18:20:33.727Z,78.27
2019-01-31T18:23:02.191Z,78.14
2019-01-31T18:25:30.683Z,77.99
2019-01-31T18:27:59.155Z,78.39
2019-01-31T18:30:30.528Z,78.25
2019-01-31T18:32:59.345Z,78.56
2019-01-31T18:35:27.890Z,78.70
2019-01-31T18:37:56.386Z,78.66
2019-01-31T18:40:30.028Z,78.98
2019-01-31T18:42:58.518Z,78.53
2019-01-31T18:45:29.095Z,78.56
2019-01-31T18:47:57.769Z,78.89
2019-01-31T18:50:31.543Z,79.22
2019-01-31T18:53:00.046Z,79.50
2019-01-31T18:55:29.258Z,79.34
2019-01-31T18:57:57.767Z,79.61
2019-01-31T19:00:34.823Z,79.49
2019-01-31T19:03:03.447Z,79.44
2019-01-31T19:05:32.385Z,79.67
2019-01-31T19:08:00.879Z,79.50
2019-01-31T19:10:42.312Z,79.41
2019-01-31T19:12:59.651Z,79.32
2019-01-31T19:15:28.681Z,79.85
2019-01-31T19:18:05.551Z,79.24
2019-01-31T19:20:29.611Z,79.69
2019-01-31T19:23:00.058Z,79.86
2019-01-31T19:25:28.872Z,79.89
2019-01-31T19:27:57.503Z,79.56
2019-01-31T19:30:31.571Z,79.47
2019-01-31T19:33:00.121Z,79.89
2019-01-31T19:35:28.771Z,79.95
2019-01-31T19:38:01.931Z,79.87
2019-01-31T19:40:32.661Z,80.10
2019-01-31T19:43:01.219Z,80.13
2019-01-31T19:45:44.200Z,80.12
2019-01-31T19:48:13.016Z,82.35
2019-01-31T19:50:43.636Z,81.00
2019-01-31T19:53:11.836Z,80.52
2019-01-31T19:55:40.409Z,80.32
2019-01-31T19:58:08.959Z,80.32
2019-01-31T20:00:37.507Z,80.15
2019-01-31T20:03:07.228Z,80.20
2019-01-31T20:05:36.213Z,80.26
2019-01-31T20:08:06.138Z,80.13
2019-01-31T20:10:34.671Z,80.20
2019-01-31T20:13:03.162Z,79.86
2019-01-31T20:15:31.865Z,80.44
2019-01-31T20:18:00.418Z,80.05
2019-01-31T20:20:30.133Z,80.40
2019-01-31T20:22:59.887Z,80.50
2019-01-31T20:25:30.082Z,80.50
2019-01-31T20:27:58.623Z,80.56
2019-01-31T20:30:29.150Z,80.52
2019-01-31T20:32:58.689Z,80.53
2019-01-31T20:35:27.210Z,80.58
2019-01-31T20:37:55.691Z,80.68
2019-01-31T20:40:27.074Z,80.70
2019-01-31T20:42:55.880Z,80.77
2019-01-31T20:45:24.517Z,80.60
2019-01-31T20:47:52.994Z,80.83
2019-01-31T20:50:23.837Z,80.89
2019-01-31T20:52:53.316Z,80.75
2019-01-31T20:55:21.901Z,80.90
2019-01-31T20:57:50.360Z,80.66
2019-01-31T21:00:34.652Z,80.80
2019-01-31T21:03:04.362Z,81.07
2019-01-31T21:05:33.207Z,81.10
2019-01-31T21:08:01.681Z,80.90
2019-01-31T21:10:30.251Z,81.39
2019-01-31T21:12:58.840Z,81.06
2019-01-31T21:15:27.470Z,80.60
2019-01-31T21:17:56.006Z,81.29
2019-01-31T21:20:26.839Z,81.11
2019-01-31T21:22:55.968Z,81.46
2019-01-31T21:25:24.590Z,81.34
2019-01-31T21:27:54.097Z,81.39
2019-01-31T21:30:28.309Z,81.59
2019-01-31T21:32:56.782Z,81.85
2019-01-31T21:35:26.398Z,81.88
2019-01-31T21:37:54.914Z,82.07
2019-01-31T21:40:25.141Z,81.80
2019-01-31T21:42:54.284Z,82.17
2019-01-31T21:45:24.010Z,82.36
2019-01-31T21:47:52.462Z,82.38
2019-01-31T21:50:26.821Z,82.37
2019-01-31T21:52:55.278Z,82.19
2019-01-31T21:55:23.759Z,82.54
2019-01-31T21:57:52.223Z,82.66
2019-01-31T22:00:23.781Z,82.67
2019-01-31T22:02:52.258Z,82.94
2019-01-31T22:05:20.881Z,82.83
2019-01-31T22:07:49.370Z,83.35
2019-01-31T22:10:20.495Z,82.93
2019-01-31T22:12:49.003Z,82.60
2019-01-31T22:15:19.825Z,82.56
2019-01-31T22:17:48.360Z,82.86
2019-01-31T22:20:16.850Z,82.73
2019-01-31T22:22:45.430Z,83.00
2019-01-31T22:25:19.111Z,83.07
2019-01-31T22:27:47.586Z,82.87
2019-01-31T22:30:18.857Z,82.77
2019-01-31T22:32:47.418Z,83.56
2019-01-31T22:35:16.274Z,83.56
2019-01-31T22:37:44.793Z,83.79
2019-01-31T22:40:15.544Z,83.71
2019-01-31T22:42:44.092Z,84.04
2019-01-31T22:45:15.324Z,84.12
2019-01-31T22:47:43.771Z,84.48
2019-01-31T22:50:18.118Z,84.34
2019-01-31T22:52:46.659Z,84.23
2019-01-31T22:55:18.019Z,84.36
2019-01-31T22:57:46.557Z,86.63
2019-01-31T23:00:24.147Z,86.16
2019-01-31T23:02:52.619Z,83.73
2019-01-31T23:05:21.115Z,83.73
2019-01-31T23:07:51.643Z,84.70
2019-01-31T23:10:19.766Z,84.47
2019-01-31T23:12:48.264Z,84.82
2019-01-31T23:15:16.744Z,85.46
2019-01-31T23:17:45.253Z,85.52
2019-01-31T23:20:15.164Z,85.46
2019-01-31T23:22:43.644Z,85.46
2019-01-31T23:25:12.288Z,85.66
2019-01-31T23:27:40.771Z,85.92
2019-01-31T23:30:12.293Z,85.55
2019-01-31T23:32:40.803Z,85.67
2019-01-31T23:35:10.018Z,85.58
2019-01-31T23:37:38.538Z,85.76
2019-01-31T23:40:09.931Z,85.90
2019-01-31T23:42:38.494Z,86.03
2019-01-31T23:45:14.903Z,86.28
2019-01-31T23:47:49.001Z,86.31
2019-01-31T23:50:13.910Z,86.08
2019-01-31T23:52:42.525Z,86.41
2019-01-31T23:55:16.191Z,86.32
2019-01-31T23:57:44.703Z,86.40
